sensor_id;sensor_type;location;lat;lon;timestamp;P1;durP1;ratioP1;P2;durP2;ratioP2
64197;SDS011;50512;53.666;9.700;2022-09-09T00:00:17;101.65;;;29.77;;
64197;SDS011;50512;53.666;9.700;2022-09-09T00:02:45;111.50;;;28.52;;
64197;SDS011;50512;53.666;9.700;2022-09-09T00:05:18;94.03;;;26.13;;
64197;SDS011;50512;53.666;9.700;2022-09-09T00:07:49;93.07;;;25.67;;
64197;SDS011;50512;53.666;9.700;2022-09-09T00:10:19;136.35;;;27.63;;
64197;SDS011;50512;53.666;9.700;2022-09-09T00:12:53;102.80;;;25.77;;
64197;SDS011;50512;53.666;9.700;2022-09-09T00:15:26;118.68;;;27.15;;
64197;SDS011;50512;53.666;9.700;2022-09-09T00:17:59;74.30;;;24.80;;
64197;SDS011;50512;53.666;9.700;2022-09-09T00:20:32;116.00;;;26.17;;
64197;SDS011;50512;53.666;9.700;2022-09-09T00:23:03;93.00;;;27.05;;
64197;SDS011;50512;53.666;9.700;2022-09-09T00:25:37;84.00;;;24.48;;
64197;SDS011;50512;53.666;9.700;2022-09-09T00:28:13;78.30;;;24.50;;
64197;SDS011;50512;53.666;9.700;2022-09-09T00:30:43;106.95;;;24.88;;
64197;SDS011;50512;53.666;9.700;2022-09-09T00:33:10;110.35;;;26.05;;
64197;SDS011;50512;53.666;9.700;2022-09-09T00:35:38;91.25;;;26.55;;
64197;SDS011;50512;53.666;9.700;2022-09-09T00:38:10;81.38;;;24.88;;
64197;SDS011;50512;53.666;9.700;2022-09-09T00:40:39;101.57;;;27.48;;
64197;SDS011;50512;53.666;9.700;2022-09-09T00:43:19;98.63;;;25.52;;
64197;SDS011;50512;53.666;9.700;2022-09-09T00:45:59;87.95;;;25.13;;
64197;SDS011;50512;53.666;9.700;2022-09-09T00:48:39;112.75;;;26.20;;
64197;SDS011;50512;53.666;9.700;2022-09-09T00:51:14;92.10;;;26.23;;
64197;SDS011;50512;53.666;9.700;2022-09-09T00:53:54;89.00;;;27.85;;
64197;SDS011;50512;53.666;9.700;2022-09-09T00:56:30;68.10;;;24.17;;
64197;SDS011;50512;53.666;9.700;2022-09-09T00:59:05;76.80;;;25.10;;
64197;SDS011;50512;53.666;9.700;2022-09-09T01:01:38;63.22;;;23.33;;
64197;SDS011;50512;53.666;9.700;2022-09-09T01:04:04;71.30;;;24.75;;
64197;SDS011;50512;53.666;9.700;2022-09-09T01:06:35;68.93;;;23.35;;
64197;SDS011;50512;53.666;9.700;2022-09-09T01:09:07;76.85;;;25.15;;
64197;SDS011;50512;53.666;9.700;2022-09-09T01:11:43;68.35;;;24.70;;
64197;SDS011;50512;53.666;9.700;2022-09-09T01:14:20;66.03;;;24.10;;
64197;SDS011;50512;53.666;9.700;2022-09-09T01:16:55;65.38;;;24.70;;
64197;SDS011;50512;53.666;9.700;2022-09-09T01:19:27;61.30;;;23.75;;
64197;SDS011;50512;53.666;9.700;2022-09-09T01:22:03;69.55;;;25.75;;
64197;SDS011;50512;53.666;9.700;2022-09-09T01:24:35;65.07;;;22.95;;
64197;SDS011;50512;53.666;9.700;2022-09-09T01:27:05;65.13;;;23.67;;
64197;SDS011;50512;53.666;9.700;2022-09-09T01:29:31;65.78;;;25.00;;
64197;SDS011;50512;53.666;9.700;2022-09-09T01:31:58;61.38;;;22.98;;
64197;SDS011;50512;53.666;9.700;2022-09-09T01:34:25;65.30;;;24.27;;
64197;SDS011;50512;53.666;9.700;2022-09-09T01:36:56;62.33;;;23.85;;
64197;SDS011;50512;53.666;9.700;2022-09-09T01:39:24;67.65;;;23.25;;
64197;SDS011;50512;53.666;9.700;2022-09-09T01:41:50;70.93;;;24.00;;
64197;SDS011;50512;53.666;9.700;2022-09-09T01:44:18;62.45;;;23.55;;
64197;SDS011;50512;53.666;9.700;2022-09-09T01:46:44;63.92;;;22.13;;
64197;SDS011;50512;53.666;9.700;2022-09-09T01:49:10;73.80;;;23.67;;
64197;SDS011;50512;53.666;9.700;2022-09-09T01:51:36;76.22;;;25.45;;
64197;SDS011;50512;53.666;9.700;2022-09-09T01:54:03;77.88;;;25.65;;
64197;SDS011;50512;53.666;9.700;2022-09-09T01:56:33;60.92;;;22.20;;
64197;SDS011;50512;53.666;9.700;2022-09-09T01:59:12;65.15;;;22.58;;
64197;SDS011;50512;53.666;9.700;2022-09-09T02:01:53;69.03;;;21.90;;
64197;SDS011;50512;53.666;9.700;2022-09-09T02:04:36;59.78;;;21.65;;
64197;SDS011;50512;53.666;9.700;2022-09-09T02:07:04;64.55;;;21.02;;
64197;SDS011;50512;53.666;9.700;2022-09-09T02:09:36;60.25;;;19.95;;
64197;SDS011;50512;53.666;9.700;2022-09-09T02:12:07;68.45;;;23.88;;
64197;SDS011;50512;53.666;9.700;2022-09-09T02:14:40;122.78;;;26.00;;
64197;SDS011;50512;53.666;9.700;2022-09-09T02:17:10;68.05;;;21.38;;
64197;SDS011;50512;53.666;9.700;2022-09-09T02:19:37;63.65;;;20.80;;
64197;SDS011;50512;53.666;9.700;2022-09-09T02:22:09;69.78;;;24.17;;
64197;SDS011;50512;53.666;9.700;2022-09-09T02:24:35;67.20;;;23.63;;
64197;SDS011;50512;53.666;9.700;2022-09-09T02:27:05;63.03;;;22.52;;
64197;SDS011;50512;53.666;9.700;2022-09-09T02:29:34;62.00;;;21.42;;
64197;SDS011;50512;53.666;9.700;2022-09-09T02:32:04;66.40;;;22.02;;
64197;SDS011;50512;53.666;9.700;2022-09-09T02:34:33;65.63;;;21.65;;
64197;SDS011;50512;53.666;9.700;2022-09-09T02:37:02;68.85;;;24.05;;
64197;SDS011;50512;53.666;9.700;2022-09-09T02:39:28;70.80;;;23.58;;
64197;SDS011;50512;53.666;9.700;2022-09-09T02:41:55;72.95;;;23.75;;
64197;SDS011;50512;53.666;9.700;2022-09-09T02:44:20;71.20;;;22.95;;
64197;SDS011;50512;53.666;9.700;2022-09-09T02:47:00;63.67;;;20.45;;
64197;SDS011;50512;53.666;9.700;2022-09-09T02:49:40;56.10;;;19.15;;
64197;SDS011;50512;53.666;9.700;2022-09-09T02:52:14;52.40;;;19.38;;
64197;SDS011;50512;53.666;9.700;2022-09-09T02:54:44;57.55;;;20.20;;
64197;SDS011;50512;53.666;9.700;2022-09-09T02:57:10;63.55;;;20.60;;
64197;SDS011;50512;53.666;9.700;2022-09-09T02:59:37;44.95;;;17.42;;
64197;SDS011;50512;53.666;9.700;2022-09-09T03:02:03;45.00;;;17.00;;
64197;SDS011;50512;53.666;9.700;2022-09-09T03:04:30;60.55;;;21.02;;
64197;SDS011;50512;53.666;9.700;2022-09-09T03:06:56;67.65;;;21.02;;
64197;SDS011;50512;53.666;9.700;2022-09-09T03:09:22;60.13;;;21.70;;
64197;SDS011;50512;53.666;9.700;2022-09-09T03:11:47;57.53;;;20.70;;
64197;SDS011;50512;53.666;9.700;2022-09-09T03:14:13;64.40;;;22.00;;
64197;SDS011;50512;53.666;9.700;2022-09-09T03:16:38;65.72;;;22.50;;
64197;SDS011;50512;53.666;9.700;2022-09-09T03:19:04;60.78;;;20.92;;
64197;SDS011;50512;53.666;9.700;2022-09-09T03:21:30;62.22;;;21.02;;
64197;SDS011;50512;53.666;9.700;2022-09-09T03:23:56;62.67;;;21.98;;
64197;SDS011;50512;53.666;9.700;2022-09-09T03:26:21;65.47;;;21.92;;
64197;SDS011;50512;53.666;9.700;2022-09-09T03:28:47;62.28;;;23.25;;
64197;SDS011;50512;53.666;9.700;2022-09-09T03:31:12;63.03;;;22.20;;
64197;SDS011;50512;53.666;9.700;2022-09-09T03:33:38;54.65;;;22.02;;
64197;SDS011;50512;53.666;9.700;2022-09-09T03:36:04;58.95;;;22.85;;
64197;SDS011;50512;53.666;9.700;2022-09-09T03:38:32;53.17;;;20.30;;
64197;SDS011;50512;53.666;9.700;2022-09-09T03:40:57;59.42;;;20.88;;
64197;SDS011;50512;53.666;9.700;2022-09-09T03:43:23;58.00;;;21.58;;
64197;SDS011;50512;53.666;9.700;2022-09-09T03:45:49;59.28;;;20.48;;
64197;SDS011;50512;53.666;9.700;2022-09-09T03:48:14;56.60;;;20.35;;
64197;SDS011;50512;53.666;9.700;2022-09-09T03:50:43;56.28;;;19.95;;
64197;SDS011;50512;53.666;9.700;2022-09-09T03:53:09;60.10;;;21.67;;
64197;SDS011;50512;53.666;9.700;2022-09-09T03:55:36;48.10;;;18.58;;
64197;SDS011;50512;53.666;9.700;2022-09-09T03:58:01;43.13;;;16.83;;
64197;SDS011;50512;53.666;9.700;2022-09-09T04:00:27;46.95;;;19.27;;
64197;SDS011;50512;53.666;9.700;2022-09-09T04:02:52;39.15;;;17.08;;
64197;SDS011;50512;53.666;9.700;2022-09-09T04:05:18;53.05;;;20.00;;
64197;SDS011;50512;53.666;9.700;2022-09-09T04:07:43;49.85;;;20.15;;
64197;SDS011;50512;53.666;9.700;2022-09-09T04:10:08;55.78;;;20.00;;
64197;SDS011;50512;53.666;9.700;2022-09-09T04:12:35;53.53;;;19.05;;
64197;SDS011;50512;53.666;9.700;2022-09-09T04:15:01;46.80;;;18.35;;
64197;SDS011;50512;53.666;9.700;2022-09-09T04:17:26;43.28;;;17.02;;
64197;SDS011;50512;53.666;9.700;2022-09-09T04:19:52;43.33;;;17.67;;
64197;SDS011;50512;53.666;9.700;2022-09-09T04:22:17;50.72;;;18.52;;
64197;SDS011;50512;53.666;9.700;2022-09-09T04:24:42;44.22;;;16.50;;
64197;SDS011;50512;53.666;9.700;2022-09-09T04:27:08;44.92;;;18.05;;
64197;SDS011;50512;53.666;9.700;2022-09-09T04:29:35;53.65;;;18.35;;
64197;SDS011;50512;53.666;9.700;2022-09-09T04:32:00;47.72;;;18.20;;
64197;SDS011;50512;53.666;9.700;2022-09-09T04:34:26;50.67;;;19.88;;
64197;SDS011;50512;53.666;9.700;2022-09-09T04:36:51;52.97;;;18.83;;
64197;SDS011;50512;53.666;9.700;2022-09-09T04:39:17;44.20;;;16.60;;
64197;SDS011;50512;53.666;9.700;2022-09-09T04:41:42;45.60;;;16.40;;
64197;SDS011;50512;53.666;9.700;2022-09-09T04:44:08;40.75;;;17.08;;
64197;SDS011;50512;53.666;9.700;2022-09-09T04:46:35;43.70;;;18.52;;
64197;SDS011;50512;53.666;9.700;2022-09-09T04:49:00;48.22;;;17.48;;
64197;SDS011;50512;53.666;9.700;2022-09-09T04:51:25;58.05;;;20.65;;
64197;SDS011;50512;53.666;9.700;2022-09-09T04:53:51;42.45;;;17.52;;
64197;SDS011;50512;53.666;9.700;2022-09-09T04:56:17;45.20;;;17.73;;
64197;SDS011;50512;53.666;9.700;2022-09-09T04:58:43;49.30;;;18.95;;
64197;SDS011;50512;53.666;9.700;2022-09-09T05:01:09;38.45;;;18.05;;
64197;SDS011;50512;53.666;9.700;2022-09-09T05:03:37;46.75;;;18.40;;
64197;SDS011;50512;53.666;9.700;2022-09-09T05:06:03;43.83;;;16.92;;
64197;SDS011;50512;53.666;9.700;2022-09-09T05:08:30;55.85;;;18.67;;
64197;SDS011;50512;53.666;9.700;2022-09-09T05:10:55;48.80;;;18.55;;
64197;SDS011;50512;53.666;9.700;2022-09-09T05:13:21;43.47;;;18.48;;
64197;SDS011;50512;53.666;9.700;2022-09-09T05:15:51;49.58;;;18.83;;
64197;SDS011;50512;53.666;9.700;2022-09-09T05:18:17;42.50;;;15.90;;
64197;SDS011;50512;53.666;9.700;2022-09-09T05:20:43;49.08;;;17.55;;
64197;SDS011;50512;53.666;9.700;2022-09-09T05:23:09;48.30;;;17.88;;
64197;SDS011;50512;53.666;9.700;2022-09-09T05:25:34;43.95;;;16.45;;
64197;SDS011;50512;53.666;9.700;2022-09-09T05:28:00;45.55;;;17.13;;
64197;SDS011;50512;53.666;9.700;2022-09-09T05:30:26;50.92;;;16.95;;
64197;SDS011;50512;53.666;9.700;2022-09-09T05:32:51;43.78;;;16.25;;
64197;SDS011;50512;53.666;9.700;2022-09-09T05:35:16;47.72;;;16.75;;
64197;SDS011;50512;53.666;9.700;2022-09-09T05:37:43;40.75;;;14.95;;
64197;SDS011;50512;53.666;9.700;2022-09-09T05:40:09;34.25;;;14.13;;
64197;SDS011;50512;53.666;9.700;2022-09-09T05:42:34;40.42;;;14.43;;
64197;SDS011;50512;53.666;9.700;2022-09-09T05:45:00;37.00;;;14.45;;
64197;SDS011;50512;53.666;9.700;2022-09-09T05:47:25;35.08;;;14.65;;
64197;SDS011;50512;53.666;9.700;2022-09-09T05:49:51;39.67;;;15.20;;
64197;SDS011;50512;53.666;9.700;2022-09-09T05:52:16;34.63;;;14.43;;
64197;SDS011;50512;53.666;9.700;2022-09-09T05:54:43;36.22;;;13.82;;
64197;SDS011;50512;53.666;9.700;2022-09-09T05:57:09;33.83;;;13.45;;
64197;SDS011;50512;53.666;9.700;2022-09-09T05:59:34;32.13;;;13.02;;
64197;SDS011;50512;53.666;9.700;2022-09-09T06:02:00;27.90;;;13.05;;
64197;SDS011;50512;53.666;9.700;2022-09-09T06:04:25;32.75;;;13.00;;
64197;SDS011;50512;53.666;9.700;2022-09-09T06:06:51;33.83;;;13.13;;
64197;SDS011;50512;53.666;9.700;2022-09-09T06:09:16;27.45;;;10.82;;
64197;SDS011;50512;53.666;9.700;2022-09-09T06:11:43;25.02;;;12.00;;
64197;SDS011;50512;53.666;9.700;2022-09-09T06:14:09;31.77;;;11.48;;
64197;SDS011;50512;53.666;9.700;2022-09-09T06:16:34;27.73;;;11.85;;
64197;SDS011;50512;53.666;9.700;2022-09-09T06:19:00;24.77;;;11.80;;
64197;SDS011;50512;53.666;9.700;2022-09-09T06:21:27;22.08;;;10.80;;
64197;SDS011;50512;53.666;9.700;2022-09-09T06:23:54;26.15;;;10.02;;
64197;SDS011;50512;53.666;9.700;2022-09-09T06:26:20;20.83;;;10.05;;
64197;SDS011;50512;53.666;9.700;2022-09-09T06:28:49;26.92;;;10.57;;
64197;SDS011;50512;53.666;9.700;2022-09-09T06:31:16;24.05;;;11.02;;
64197;SDS011;50512;53.666;9.700;2022-09-09T06:33:42;21.73;;;10.52;;
64197;SDS011;50512;53.666;9.700;2022-09-09T06:36:10;19.80;;;9.73;;
64197;SDS011;50512;53.666;9.700;2022-09-09T06:38:36;21.73;;;10.30;;
64197;SDS011;50512;53.666;9.700;2022-09-09T06:41:02;24.10;;;10.27;;
64197;SDS011;50512;53.666;9.700;2022-09-09T06:43:27;21.42;;;9.98;;
64197;SDS011;50512;53.666;9.700;2022-09-09T06:45:55;20.77;;;9.48;;
64197;SDS011;50512;53.666;9.700;2022-09-09T06:48:22;20.63;;;9.70;;
64197;SDS011;50512;53.666;9.700;2022-09-09T06:50:47;21.02;;;9.07;;
64197;SDS011;50512;53.666;9.700;2022-09-09T06:53:15;20.50;;;9.00;;
64197;SDS011;50512;53.666;9.700;2022-09-09T06:55:41;22.65;;;9.35;;
64197;SDS011;50512;53.666;9.700;2022-09-09T06:58:07;20.70;;;8.23;;
64197;SDS011;50512;53.666;9.700;2022-09-09T07:00:33;19.10;;;8.48;;
64197;SDS011;50512;53.666;9.700;2022-09-09T07:03:00;17.63;;;8.85;;
64197;SDS011;50512;53.666;9.700;2022-09-09T07:05:25;19.52;;;9.05;;
64197;SDS011;50512;53.666;9.700;2022-09-09T07:07:50;16.25;;;7.82;;
64197;SDS011;50512;53.666;9.700;2022-09-09T07:10:16;19.70;;;8.05;;
64197;SDS011;50512;53.666;9.700;2022-09-09T07:12:41;14.73;;;7.53;;
64197;SDS011;50512;53.666;9.700;2022-09-09T07:15:07;19.85;;;8.30;;
64197;SDS011;50512;53.666;9.700;2022-09-09T07:17:33;15.07;;;8.07;;
64197;SDS011;50512;53.666;9.700;2022-09-09T07:20:00;16.70;;;7.40;;
64197;SDS011;50512;53.666;9.700;2022-09-09T07:22:27;19.85;;;8.32;;
64197;SDS011;50512;53.666;9.700;2022-09-09T07:24:53;16.63;;;7.53;;
64197;SDS011;50512;53.666;9.700;2022-09-09T07:27:18;15.65;;;7.93;;
64197;SDS011;50512;53.666;9.700;2022-09-09T07:29:44;19.17;;;7.32;;
64197;SDS011;50512;53.666;9.700;2022-09-09T07:32:09;17.02;;;6.90;;
64197;SDS011;50512;53.666;9.700;2022-09-09T07:34:34;15.25;;;7.15;;
64197;SDS011;50512;53.666;9.700;2022-09-09T07:37:01;12.82;;;6.38;;
64197;SDS011;50512;53.666;9.700;2022-09-09T07:39:27;12.80;;;6.93;;
64197;SDS011;50512;53.666;9.700;2022-09-09T07:41:52;14.98;;;6.97;;
64197;SDS011;50512;53.666;9.700;2022-09-09T07:44:18;13.65;;;6.68;;
64197;SDS011;50512;53.666;9.700;2022-09-09T07:46:45;12.52;;;6.18;;
64197;SDS011;50512;53.666;9.700;2022-09-09T07:49:10;10.95;;;6.18;;
64197;SDS011;50512;53.666;9.700;2022-09-09T07:51:37;12.05;;;6.57;;
64197;SDS011;50512;53.666;9.700;2022-09-09T07:54:06;13.73;;;6.35;;
64197;SDS011;50512;53.666;9.700;2022-09-09T07:56:32;12.90;;;6.93;;
64197;SDS011;50512;53.666;9.700;2022-09-09T07:58:58;14.40;;;5.70;;
64197;SDS011;50512;53.666;9.700;2022-09-09T08:01:25;11.40;;;5.90;;
64197;SDS011;50512;53.666;9.700;2022-09-09T08:03:53;9.35;;;5.32;;
64197;SDS011;50512;53.666;9.700;2022-09-09T08:06:20;12.32;;;6.85;;
64197;SDS011;50512;53.666;9.700;2022-09-09T08:08:49;11.23;;;6.28;;
64197;SDS011;50512;53.666;9.700;2022-09-09T08:11:16;11.05;;;6.95;;
64197;SDS011;50512;53.666;9.700;2022-09-09T08:13:43;10.35;;;5.32;;
64197;SDS011;50512;53.666;9.700;2022-09-09T08:16:09;10.52;;;5.25;;
64197;SDS011;50512;53.666;9.700;2022-09-09T08:18:36;14.40;;;6.03;;
64197;SDS011;50512;53.666;9.700;2022-09-09T08:21:06;12.18;;;5.90;;
64197;SDS011;50512;53.666;9.700;2022-09-09T08:23:33;11.88;;;5.82;;
64197;SDS011;50512;53.666;9.700;2022-09-09T08:26:03;8.57;;;5.03;;
64197;SDS011;50512;53.666;9.700;2022-09-09T08:28:32;13.77;;;6.00;;
64197;SDS011;50512;53.666;9.700;2022-09-09T08:31:04;10.68;;;6.25;;
64197;SDS011;50512;53.666;9.700;2022-09-09T08:33:31;14.80;;;5.93;;
64197;SDS011;50512;53.666;9.700;2022-09-09T08:35:56;13.70;;;6.60;;
64197;SDS011;50512;53.666;9.700;2022-09-09T08:38:22;11.40;;;5.28;;
64197;SDS011;50512;53.666;9.700;2022-09-09T08:40:47;13.57;;;5.82;;
64197;SDS011;50512;53.666;9.700;2022-09-09T08:43:15;11.75;;;6.03;;
64197;SDS011;50512;53.666;9.700;2022-09-09T08:45:48;11.95;;;5.72;;
64197;SDS011;50512;53.666;9.700;2022-09-09T08:48:36;11.23;;;6.47;;
64197;SDS011;50512;53.666;9.700;2022-09-09T08:51:09;13.73;;;6.50;;
64197;SDS011;50512;53.666;9.700;2022-09-09T08:53:36;11.13;;;6.32;;
64197;SDS011;50512;53.666;9.700;2022-09-09T08:56:08;12.65;;;5.82;;
64197;SDS011;50512;53.666;9.700;2022-09-09T08:58:38;15.38;;;6.65;;
64197;SDS011;50512;53.666;9.700;2022-09-09T09:01:16;13.60;;;6.53;;
64197;SDS011;50512;53.666;9.700;2022-09-09T09:03:53;12.18;;;6.13;;
64197;SDS011;50512;53.666;9.700;2022-09-09T09:06:26;12.20;;;5.35;;
64197;SDS011;50512;53.666;9.700;2022-09-09T09:09:05;10.35;;;6.07;;
64197;SDS011;50512;53.666;9.700;2022-09-09T09:11:36;13.73;;;5.68;;
64197;SDS011;50512;53.666;9.700;2022-09-09T09:14:05;14.73;;;6.10;;
64197;SDS011;50512;53.666;9.700;2022-09-09T09:16:38;11.25;;;6.10;;
64197;SDS011;50512;53.666;9.700;2022-09-09T09:19:07;9.23;;;5.55;;
64197;SDS011;50512;53.666;9.700;2022-09-09T09:21:38;8.95;;;5.40;;
64197;SDS011;50512;53.666;9.700;2022-09-09T09:24:09;12.50;;;5.10;;
64197;SDS011;50512;53.666;9.700;2022-09-09T09:26:41;8.15;;;4.38;;
64197;SDS011;50512;53.666;9.700;2022-09-09T09:29:08;9.13;;;4.90;;
64197;SDS011;50512;53.666;9.700;2022-09-09T09:31:37;8.98;;;5.13;;
64197;SDS011;50512;53.666;9.700;2022-09-09T09:34:03;11.65;;;4.80;;
64197;SDS011;50512;53.666;9.700;2022-09-09T09:36:33;7.95;;;4.50;;
64197;SDS011;50512;53.666;9.700;2022-09-09T09:39:03;9.85;;;4.97;;
64197;SDS011;50512;53.666;9.700;2022-09-09T09:41:30;10.75;;;4.68;;
64197;SDS011;50512;53.666;9.700;2022-09-09T09:43:57;11.30;;;4.35;;
64197;SDS011;50512;53.666;9.700;2022-09-09T09:46:24;9.80;;;3.67;;
64197;SDS011;50512;53.666;9.700;2022-09-09T09:48:57;10.80;;;4.38;;
64197;SDS011;50512;53.666;9.700;2022-09-09T09:51:23;8.68;;;3.15;;
64197;SDS011;50512;53.666;9.700;2022-09-09T09:53:50;9.15;;;3.22;;
64197;SDS011;50512;53.666;9.700;2022-09-09T09:56:15;10.93;;;3.10;;
64197;SDS011;50512;53.666;9.700;2022-09-09T09:58:48;5.90;;;2.78;;
64197;SDS011;50512;53.666;9.700;2022-09-09T10:01:18;5.75;;;2.58;;
64197;SDS011;50512;53.666;9.700;2022-09-09T10:03:49;4.93;;;2.63;;
64197;SDS011;50512;53.666;9.700;2022-09-09T10:06:17;4.00;;;2.20;;
64197;SDS011;50512;53.666;9.700;2022-09-09T10:08:54;9.80;;;3.17;;
64197;SDS011;50512;53.666;9.700;2022-09-09T10:11:23;7.80;;;2.35;;
64197;SDS011;50512;53.666;9.700;2022-09-09T10:14:00;7.00;;;2.67;;
64197;SDS011;50512;53.666;9.700;2022-09-09T10:16:40;7.15;;;2.80;;
64197;SDS011;50512;53.666;9.700;2022-09-09T10:19:13;4.75;;;2.33;;
64197;SDS011;50512;53.666;9.700;2022-09-09T10:21:51;6.90;;;2.35;;
64197;SDS011;50512;53.666;9.700;2022-09-09T10:24:39;4.55;;;2.38;;
64197;SDS011;50512;53.666;9.700;2022-09-09T10:27:27;5.93;;;1.85;;
64197;SDS011;50512;53.666;9.700;2022-09-09T10:30:03;6.20;;;2.95;;
64197;SDS011;50512;53.666;9.700;2022-09-09T10:32:39;6.40;;;1.88;;
64197;SDS011;50512;53.666;9.700;2022-09-09T10:35:11;4.45;;;1.83;;
64197;SDS011;50512;53.666;9.700;2022-09-09T10:37:44;5.85;;;1.75;;
64197;SDS011;50512;53.666;9.700;2022-09-09T10:40:21;2.38;;;1.40;;
64197;SDS011;50512;53.666;9.700;2022-09-09T10:42:53;4.72;;;1.58;;
64197;SDS011;50512;53.666;9.700;2022-09-09T10:45:27;4.10;;;1.58;;
64197;SDS011;50512;53.666;9.700;2022-09-09T10:50:41;4.93;;;1.30;;
64197;SDS011;50512;53.666;9.700;2022-09-09T10:53:14;2.05;;;1.20;;
64197;SDS011;50512;53.666;9.700;2022-09-09T10:55:48;3.85;;;1.50;;
64197;SDS011;50512;53.666;9.700;2022-09-09T10:58:20;4.03;;;1.65;;
64197;SDS011;50512;53.666;9.700;2022-09-09T11:00:51;5.47;;;1.20;;
64197;SDS011;50512;53.666;9.700;2022-09-09T11:03:21;2.50;;;1.40;;
64197;SDS011;50512;53.666;9.700;2022-09-09T11:05:51;4.47;;;1.30;;
64197;SDS011;50512;53.666;9.700;2022-09-09T11:08:22;4.93;;;1.88;;
64197;SDS011;50512;53.666;9.700;2022-09-09T11:10:51;4.78;;;1.63;;
64197;SDS011;50512;53.666;9.700;2022-09-09T11:13:24;4.88;;;1.70;;
64197;SDS011;50512;53.666;9.700;2022-09-09T11:15:58;6.60;;;2.15;;
64197;SDS011;50512;53.666;9.700;2022-09-09T11:18:26;2.65;;;1.63;;
64197;SDS011;50512;53.666;9.700;2022-09-09T11:20:58;4.40;;;2.10;;
64197;SDS011;50512;53.666;9.700;2022-09-09T11:23:28;5.43;;;2.28;;
64197;SDS011;50512;53.666;9.700;2022-09-09T11:26:01;3.50;;;2.10;;
64197;SDS011;50512;53.666;9.700;2022-09-09T11:28:32;6.25;;;2.17;;
64197;SDS011;50512;53.666;9.700;2022-09-09T11:31:18;3.00;;;2.17;;
64197;SDS011;50512;53.666;9.700;2022-09-09T11:34:04;3.67;;;2.00;;
64197;SDS011;50512;53.666;9.700;2022-09-09T11:39:38;4.75;;;2.20;;
64197;SDS011;50512;53.666;9.700;2022-09-09T11:42:16;5.43;;;2.30;;
64197;SDS011;50512;53.666;9.700;2022-09-09T11:44:43;4.38;;;2.10;;
64197;SDS011;50512;53.666;9.700;2022-09-09T11:47:15;3.35;;;2.03;;
64197;SDS011;50512;53.666;9.700;2022-09-09T11:49:45;5.60;;;2.38;;
64197;SDS011;50512;53.666;9.700;2022-09-09T11:52:11;4.63;;;2.42;;
64197;SDS011;50512;53.666;9.700;2022-09-09T11:54:46;3.78;;;2.38;;
64197;SDS011;50512;53.666;9.700;2022-09-09T11:57:16;6.00;;;2.08;;
64197;SDS011;50512;53.666;9.700;2022-09-09T11:59:50;5.97;;;2.22;;
64197;SDS011;50512;53.666;9.700;2022-09-09T12:02:18;4.47;;;2.13;;
64197;SDS011;50512;53.666;9.700;2022-09-09T12:04:48;5.32;;;2.65;;
64197;SDS011;50512;53.666;9.700;2022-09-09T12:07:28;5.63;;;2.15;;
64197;SDS011;50512;53.666;9.700;2022-09-09T12:10:00;6.53;;;2.95;;
64197;SDS011;50512;53.666;9.700;2022-09-09T12:12:30;4.35;;;2.15;;
64197;SDS011;50512;53.666;9.700;2022-09-09T12:14:58;5.38;;;2.72;;
64197;SDS011;50512;53.666;9.700;2022-09-09T12:17:27;5.28;;;2.50;;
64197;SDS011;50512;53.666;9.700;2022-09-09T12:20:00;7.15;;;2.45;;
64197;SDS011;50512;53.666;9.700;2022-09-09T12:22:30;6.78;;;2.25;;
64197;SDS011;50512;53.666;9.700;2022-09-09T12:25:03;5.55;;;2.33;;
64197;SDS011;50512;53.666;9.700;2022-09-09T12:27:42;4.60;;;2.40;;
64197;SDS011;50512;53.666;9.700;2022-09-09T12:30:14;5.57;;;2.67;;
64197;SDS011;50512;53.666;9.700;2022-09-09T12:32:41;7.30;;;2.40;;
64197;SDS011;50512;53.666;9.700;2022-09-09T12:35:09;6.75;;;2.55;;
64197;SDS011;50512;53.666;9.700;2022-09-09T12:37:37;7.03;;;3.10;;
64197;SDS011;50512;53.666;9.700;2022-09-09T12:40:18;5.78;;;2.90;;
64197;SDS011;50512;53.666;9.700;2022-09-09T12:42:45;4.63;;;2.80;;
64197;SDS011;50512;53.666;9.700;2022-09-09T12:45:15;5.05;;;2.40;;
64197;SDS011;50512;53.666;9.700;2022-09-09T12:47:43;5.07;;;2.40;;
64197;SDS011;50512;53.666;9.700;2022-09-09T12:50:15;6.47;;;2.70;;
64197;SDS011;50512;53.666;9.700;2022-09-09T12:52:42;5.88;;;2.50;;
64197;SDS011;50512;53.666;9.700;2022-09-09T12:55:16;4.50;;;2.22;;
64197;SDS011;50512;53.666;9.700;2022-09-09T12:57:44;8.27;;;2.22;;
64197;SDS011;50512;53.666;9.700;2022-09-09T13:00:12;4.57;;;2.30;;
64197;SDS011;50512;53.666;9.700;2022-09-09T13:02:48;6.03;;;2.08;;
64197;SDS011;50512;53.666;9.700;2022-09-09T13:05:16;7.47;;;2.88;;
64197;SDS011;50512;53.666;9.700;2022-09-09T13:07:44;8.27;;;2.38;;
64197;SDS011;50512;53.666;9.700;2022-09-09T13:10:10;4.95;;;2.25;;
64197;SDS011;50512;53.666;9.700;2022-09-09T13:12:38;5.43;;;1.85;;
64197;SDS011;50512;53.666;9.700;2022-09-09T13:15:05;8.52;;;2.00;;
64197;SDS011;50512;53.666;9.700;2022-09-09T13:17:41;7.13;;;2.65;;
64197;SDS011;50512;53.666;9.700;2022-09-09T13:20:14;5.18;;;2.33;;
64197;SDS011;50512;53.666;9.700;2022-09-09T13:22:41;8.27;;;2.45;;
64197;SDS011;50512;53.666;9.700;2022-09-09T13:25:17;6.95;;;2.10;;
64197;SDS011;50512;53.666;9.700;2022-09-09T13:27:52;2.80;;;1.90;;
64197;SDS011;50512;53.666;9.700;2022-09-09T13:30:21;6.70;;;2.42;;
64197;SDS011;50512;53.666;9.700;2022-09-09T13:32:48;7.45;;;2.47;;
64197;SDS011;50512;53.666;9.700;2022-09-09T13:35:24;6.20;;;2.55;;
64197;SDS011;50512;53.666;9.700;2022-09-09T13:37:50;10.63;;;2.58;;
64197;SDS011;50512;53.666;9.700;2022-09-09T13:40:17;7.22;;;2.72;;
64197;SDS011;50512;53.666;9.700;2022-09-09T13:42:44;10.80;;;3.60;;
64197;SDS011;50512;53.666;9.700;2022-09-09T13:45:16;6.18;;;2.63;;
64197;SDS011;50512;53.666;9.700;2022-09-09T13:47:44;5.55;;;2.60;;
64197;SDS011;50512;53.666;9.700;2022-09-09T13:50:15;6.07;;;3.03;;
64197;SDS011;50512;53.666;9.700;2022-09-09T13:52:43;5.63;;;2.53;;
64197;SDS011;50512;53.666;9.700;2022-09-09T13:55:09;7.80;;;3.28;;
64197;SDS011;50512;53.666;9.700;2022-09-09T13:57:34;6.35;;;3.08;;
64197;SDS011;50512;53.666;9.700;2022-09-09T14:00:00;8.00;;;2.22;;
64197;SDS011;50512;53.666;9.700;2022-09-09T14:02:26;3.63;;;1.98;;
64197;SDS011;50512;53.666;9.700;2022-09-09T14:04:52;2.00;;;1.80;;
64197;SDS011;50512;53.666;9.700;2022-09-09T14:07:18;3.45;;;1.90;;
64197;SDS011;50512;53.666;9.700;2022-09-09T14:09:44;5.00;;;2.20;;
64197;SDS011;50512;53.666;9.700;2022-09-09T14:12:09;7.15;;;3.15;;
64197;SDS011;50512;53.666;9.700;2022-09-09T14:14:36;5.47;;;2.15;;
64197;SDS011;50512;53.666;9.700;2022-09-09T14:17:01;3.72;;;1.85;;
64197;SDS011;50512;53.666;9.700;2022-09-09T14:19:28;3.00;;;2.40;;
64197;SDS011;50512;53.666;9.700;2022-09-09T14:21:53;3.60;;;2.00;;
64197;SDS011;50512;53.666;9.700;2022-09-09T14:24:19;4.57;;;2.13;;
64197;SDS011;50512;53.666;9.700;2022-09-09T14:26:44;7.35;;;3.10;;
64197;SDS011;50512;53.666;9.700;2022-09-09T14:29:10;5.53;;;3.08;;
64197;SDS011;50512;53.666;9.700;2022-09-09T14:31:35;3.47;;;2.30;;
64197;SDS011;50512;53.666;9.700;2022-09-09T14:34:01;5.30;;;2.45;;
64197;SDS011;50512;53.666;9.700;2022-09-09T14:36:27;5.78;;;2.47;;
64197;SDS011;50512;53.666;9.700;2022-09-09T14:38:53;3.25;;;2.17;;
64197;SDS011;50512;53.666;9.700;2022-09-09T14:41:19;2.70;;;2.15;;
64197;SDS011;50512;53.666;9.700;2022-09-09T14:43:45;6.30;;;3.10;;
64197;SDS011;50512;53.666;9.700;2022-09-09T14:46:12;5.22;;;2.20;;
64197;SDS011;50512;53.666;9.700;2022-09-09T14:48:39;2.70;;;1.80;;